Time;durP1;ratioP1;P1;durP2;ratioP2;P2;SDS_P1;SDS_P2;PMS_P1;PMS_P2;Temp;Humidity;BMP_temperature;BMP_pressure;BME280_temperature;BME280_humidity;BME280_pressure;Samples;Min_cycle;Max_cycle;Signal;HPM_P1;HPM_P2
2023/10/28 04:33:53;;;;;;;0.50;0.43;;;;;;;;;;5117320;27;20428;-82
2023/10/28 04:36:19;;;;;;;1.45;0.80;;;;;;;;;;5116130;28;20032;-86
2023/10/28 04:38:44;;;;;;;0.30;0.30;;;;;;;;;;5118752;27;20422;-84
2023/10/28 04:41:09;;;;;;;3.53;0.60;;;;;;;;;;5117643;27;20020;-86
2023/10/28 04:43:35;;;;;;;0.60;0.40;;;;;;;;;;5116729;28;20024;-86
2023/10/28 04:46:00;;;;;;;0.50;0.43;;;;;;;;;;5120768;28;20088;-81
2023/10/28 04:48:29;;;;;;;0.65;0.50;;;;;;;;;;5118396;28;20041;-84
2023/10/28 04:51:08;;;;;;;0.47;0.47;;;;;;;;;;5119376;27;20046;-83
2023/10/28 04:53:33;;;;;;;1.57;1.07;;;;;;;;;;5114731;28;20023;-83
2023/10/28 04:56:00;;;;;;;1.40;0.28;;;;;;;;;;5118049;28;20034;-83
2023/10/28 04:58:27;;;;;;;0.55;0.55;;;;;;;;;;5119158;28;20026;-84
2023/10/28 05:00:53;;;;;;;1.42;0.77;;;;;;;;;;5116589;27;20118;-84
2023/10/28 05:03:18;;;;;;;0.75;0.57;;;;;;;;;;5125719;27;20039;-83
2023/10/28 05:05:46;;;;;;;1.58;0.77;;;;;;;;;;5115799;27;20036;-85
2023/10/28 05:08:11;;;;;;;1.15;0.73;;;;;;;;;;5122248;28;20118;-84
2023/10/28 05:10:37;;;;;;;0.50;0.50;;;;;;;;;;5116312;28;20101;-84
2023/10/28 05:13:03;;;;;;;1.23;0.65;;;;;;;;;;5112514;27;20116;-85
2023/10/28 05:15:31;;;;;;;1.25;0.63;;;;;;;;;;5112218;28;20036;-83
2023/10/28 05:17:57;;;;;;;1.08;0.40;;;;;;;;;;5114812;28;20430;-86
2023/10/28 05:20:22;;;;;;;0.52;0.52;;;;;;;;;;5116766;28;20102;-86
2023/10/28 05:22:48;;;;;;;1.85;0.63;;;;;;;;;;5111479;28;20031;-83
2023/10/28 05:25:13;;;;;;;0.45;0.45;;;;;;;;;;5112794;27;20036;-83
2023/10/28 05:27:39;;;;;;;0.95;0.85;;;;;;;;;;5111056;28;20066;-86
2023/10/28 05:30:05;;;;;;;0.65;0.65;;;;;;;;;;5107477;28;20074;-83
2023/10/28 05:32:31;;;;;;;2.70;0.90;;;;;;;;;;5114453;28;20039;-83
2023/10/28 05:34:56;;;;;;;1.20;0.70;;;;;;;;;;5112211;28;20115;-84
2023/10/28 05:37:27;;;;;;;1.23;0.68;;;;;;;;;;5113042;27;20085;-84
2023/10/28 05:39:58;;;;;;;5.03;1.00;;;;;;;;;;5109506;28;20059;-85
2023/10/28 05:42:24;;;;;;;0.20;0.20;;;;;;;;;;5110534;28;20484;-85
2023/10/28 05:44:49;;;;;;;1.67;0.90;;;;;;;;;;5094911;28;20059;-85
2023/10/28 05:47:16;;;;;;;1.55;0.85;;;;;;;;;;5104668;28;20069;-85
2023/10/28 05:49:42;;;;;;;2.92;1.08;;;;;;;;;;5095985;28;20036;-85
2023/10/28 05:52:09;;;;;;;0.68;0.60;;;;;;;;;;5097426;28;20381;-82
2023/10/28 05:54:34;;;;;;;0.73;0.73;;;;;;;;;;5101148;28;20517;-85
2023/10/28 05:57:00;;;;;;;0.70;0.70;;;;;;;;;;5094142;28;20114;-85
2023/10/28 05:59:25;;;;;;;1.42;0.70;;;;;;;;;;5094911;28;20020;-85
2023/10/28 06:01:51;;;;;;;3.40;0.77;;;;;;;;;;5099841;28;20028;-84
2023/10/28 06:04:17;;;;;;;0.70;0.55;;;;;;;;;;5095870;28;20081;-84
2023/10/28 06:06:42;;;;;;;1.83;0.90;;;;;;;;;;5104358;28;20055;-84
2023/10/28 06:09:10;;;;;;;0.70;0.60;;;;;;;;;;5087512;28;20101;-84
2023/10/28 06:11:37;;;;;;;0.40;0.40;;;;;;;;;;5093969;28;20063;-86
2023/10/28 06:14:03;;;;;;;0.80;0.47;;;;;;;;;;5095146;28;20103;-84
2023/10/28 06:16:29;;;;;;;4.72;1.00;;;;;;;;;;5096984;28;20023;-85
2023/10/28 06:18:54;;;;;;;0.60;0.60;;;;;;;;;;5099300;28;20034;-85
2023/10/28 06:21:20;;;;;;;1.40;0.77;;;;;;;;;;5100967;28;20058;-85
2023/10/28 06:23:45;;;;;;;0.85;0.43;;;;;;;;;;5098210;28;20452;-85
2023/10/28 06:26:11;;;;;;;0.68;0.55;;;;;;;;;;5092555;28;21415;-85
2023/10/28 06:28:39;;;;;;;1.02;0.68;;;;;;;;;;5093700;28;20024;-85
2023/10/28 06:31:04;;;;;;;2.70;1.00;;;;;;;;;;5096113;28;20040;-85
2023/10/28 06:33:30;;;;;;;2.05;0.88;;;;;;;;;;5093738;28;20047;-85
2023/10/28 06:35:55;;;;;;;1.02;0.65;;;;;;;;;;5092458;28;20351;-86
2023/10/28 06:38:21;;;;;;;2.40;0.80;;;;;;;;;;5091863;28;20409;-86
2023/10/28 06:40:50;;;;;;;2.15;0.82;;;;;;;;;;5092258;28;20031;-86
2023/10/28 06:43:15;;;;;;;0.73;0.52;;;;;;;;;;5093732;28;20555;-86
2023/10/28 06:45:41;;;;;;;1.90;0.82;;;;;;;;;;5092436;28;20055;-86
2023/10/28 06:48:07;;;;;;;2.47;1.45;;;;;;;;;;5096824;28;20024;-85
2023/10/28 06:50:32;;;;;;;3.38;1.30;;;;;;;;;;5090462;28;20522;-86
2023/10/28 06:52:59;;;;;;;5.57;1.02;;;;;;;;;;5096510;28;20468;-90
2023/10/28 06:55:26;;;;;;;1.77;1.10;;;;;;;;;;5095749;28;20043;-88
2023/10/28 06:57:52;;;;;;;2.13;1.48;;;;;;;;;;5098957;28;20024;-86
2023/10/28 07:00:18;;;;;;;2.67;0.77;;;;;;;;;;5099647;28;20463;-85
2023/10/28 07:02:44;;;;;;;3.30;1.63;;;;;;;;;;5093716;28;20438;-86
2023/10/28 07:05:10;;;;;;;1.45;0.98;;;;;;;;;;5103155;28;20111;-85
2023/10/28 07:07:39;;;;;;;2.47;1.75;;;;;;;;;;5095777;28;20052;-86
2023/10/28 07:10:05;;;;;;;1.73;1.05;;;;;;;;;;5098506;28;20019;-86
2023/10/28 07:12:31;;;;;;;3.85;1.55;;;;;;;;;;5097149;28;20020;-87
2023/10/28 07:14:58;;;;;;;1.23;0.52;;;;;;;;;;5103592;28;20076;-85
2023/10/28 07:17:23;;;;;;;1.25;1.08;;;;;;;;;;5102414;28;20020;-86
2023/10/28 07:19:49;;;;;;;6.00;1.63;;;;;;;;;;5104248;28;20043;-86
2023/10/28 07:22:22;;;;;;;1.17;0.77;;;;;;;;;;5092006;28;20020;-85
2023/10/28 07:24:48;;;;;;;0.77;0.77;;;;;;;;;;5095886;28;20717;-85
2023/10/28 07:27:14;;;;;;;2.30;0.90;;;;;;;;;;5100169;28;20027;-85
2023/10/28 07:29:39;;;;;;;0.95;0.73;;;;;;;;;;5101675;28;20020;-86
2023/10/28 07:32:06;;;;;;;6.10;1.15;;;;;;;;;;5113642;27;20071;-85
2023/10/28 07:34:31;;;;;;;1.25;0.90;;;;;;;;;;5100263;28;20537;-85
2023/10/28 07:37:01;;;;;;;1.38;0.70;;;;;;;;;;5100338;28;20015;-86
2023/10/28 07:39:26;;;;;;;0.88;0.70;;;;;;;;;;5101470;28;20027;-86
2023/10/28 07:41:53;;;;;;;6.38;0.98;;;;;;;;;;5096353;28;20077;-86
2023/10/28 07:44:18;;;;;;;4.03;1.58;;;;;;;;;;5098611;28;20475;-85
2023/10/28 07:46:44;;;;;;;1.23;0.98;;;;;;;;;;5117034;27;20032;-85
2023/10/28 07:49:10;;;;;;;1.25;0.90;;;;;;;;;;5098381;28;20103;-86
2023/10/28 07:51:36;;;;;;;3.33;1.20;;;;;;;;;;5095453;28;20027;-86
2023/10/28 07:54:02;;;;;;;1.88;1.00;;;;;;;;;;5101155;28;20365;-86
2023/10/28 07:56:29;;;;;;;0.52;0.47;;;;;;;;;;5096283;28;20383;-86
2023/10/28 07:58:59;;;;;;;1.27;0.95;;;;;;;;;;5098489;28;20028;-86
2023/10/28 08:01:31;;;;;;;0.93;0.65;;;;;;;;;;5091432;28;20467;-87
2023/10/28 08:03:57;;;;;;;4.40;1.63;;;;;;;;;;5098376;28;20024;-83
2023/10/28 08:06:24;;;;;;;3.30;1.38;;;;;;;;;;5094093;28;20047;-84
2023/10/28 08:08:52;;;;;;;0.90;0.82;;;;;;;;;;5100367;28;20020;-87
2023/10/28 08:11:18;;;;;;;1.07;0.97;;;;;;;;;;5113742;27;20101;-85
2023/10/28 08:13:44;;;;;;;2.35;1.10;;;;;;;;;;5094070;28;20079;-85
2023/10/28 08:16:09;;;;;;;1.90;1.45;;;;;;;;;;5095588;28;20031;-84
2023/10/28 08:18:44;;;;;;;0.77;0.73;;;;;;;;;;5097527;28;20097;-84
2023/10/28 08:21:10;;;;;;;4.32;1.88;;;;;;;;;;5092592;28;20042;-85
2023/10/28 08:23:38;;;;;;;18.02;2.35;;;;;;;;;;5102388;28;20031;-87
2023/10/28 08:26:05;;;;;;;5.22;1.80;;;;;;;;;;5094439;28;20042;-86
2023/10/28 08:28:31;;;;;;;7.85;0.95;;;;;;;;;;5096542;28;20034;-83
2023/10/28 08:30:56;;;;;;;1.00;0.90;;;;;;;;;;5090412;28;20024;-84
2023/10/28 08:33:22;;;;;;;4.00;1.13;;;;;;;;;;5099066;28;20040;-84
2023/10/28 08:35:48;;;;;;;1.30;0.98;;;;;;;;;;5096679;28;20056;-83
2023/10/28 08:38:17;;;;;;;1.20;0.93;;;;;;;;;;5093694;28;20408;-85
2023/10/28 08:40:47;;;;;;;2.28;0.95;;;;;;;;;;5102855;28;20036;-84
2023/10/28 08:43:17;;;;;;;0.88;0.75;;;;;;;;;;5092532;28;20052;-86
2023/10/28 08:45:45;;;;;;;4.35;1.42;;;;;;;;;;5095612;28;20036;-86
2023/10/28 08:48:13;;;;;;;10.18;1.60;;;;;;;;;;5085790;28;20077;-83
2023/10/28 08:50:43;;;;;;;0.95;0.85;;;;;;;;;;5099628;28;20020;-87
2023/10/28 08:53:09;;;;;;;1.50;0.90;;;;;;;;;;5095516;28;20024;-86
2023/10/28 08:55:38;;;;;;;1.27;0.63;;;;;;;;;;5094590;28;20038;-87
2023/10/28 08:58:06;;;;;;;1.98;1.30;;;;;;;;;;5096074;28;20032;-87
2023/10/28 09:00:34;;;;;;;1.75;1.23;;;;;;;;;;5100008;28;20052;-86
2023/10/28 09:03:01;;;;;;;2.00;0.65;;;;;;;;;;5097006;28;20070;-83
2023/10/28 09:05:27;;;;;;;1.65;0.60;;;;;;;;;;5095729;28;20563;-84
2023/10/28 09:07:52;;;;;;;0.70;0.63;;;;;;;;;;5094749;28;20110;-84
2023/10/28 09:10:18;;;;;;;2.33;0.98;;;;;;;;;;5097779;28;20027;-86
2023/10/28 09:12:44;;;;;;;1.75;0.85;;;;;;;;;;5100878;28;20020;-86
2023/10/28 09:15:11;;;;;;;2.42;0.85;;;;;;;;;;5095929;28;20027;-86
2023/10/28 09:17:39;;;;;;;0.52;0.50;;;;;;;;;;5097636;28;20379;-84
2023/10/28 09:20:09;;;;;;;2.17;0.82;;;;;;;;;;5095208;28;20532;-82
2023/10/28 09:22:38;;;;;;;1.27;1.08;;;;;;;;;;5096224;28;20024;-84
2023/10/28 09:25:04;;;;;;;3.13;1.13;;;;;;;;;;5101204;28;20027;-84
2023/10/28 09:27:29;;;;;;;3.97;1.02;;;;;;;;;;5098636;28;20035;-82
2023/10/28 09:30:03;;;;;;;2.05;0.90;;;;;;;;;;5101740;28;20027;-81
2023/10/28 09:32:31;;;;;;;1.10;0.85;;;;;;;;;;5101602;28;20028;-85
2023/10/28 09:34:57;;;;;;;0.50;0.50;;;;;;;;;;5097747;28;20032;-88
2023/10/28 09:37:23;;;;;;;1.63;1.23;;;;;;;;;;5106138;28;20031;-86
2023/10/28 09:39:50;;;;;;;0.75;0.70;;;;;;;;;;5101945;28;20430;-86
2023/10/28 09:42:16;;;;;;;0.40;0.40;;;;;;;;;;5105636;28;20030;-85
2023/10/28 09:44:44;;;;;;;8.20;1.25;;;;;;;;;;5107529;28;20110;-85
2023/10/28 09:47:17;;;;;;;0.77;0.70;;;;;;;;;;5103986;28;20075;-85
2023/10/28 09:49:46;;;;;;;1.50;0.77;;;;;;;;;;5104689;28;20077;-86
2023/10/28 09:52:14;;;;;;;1.55;1.10;;;;;;;;;;5105195;28;20414;-85
2023/10/28 09:54:42;;;;;;;3.63;0.70;;;;;;;;;;5102343;28;20038;-82
2023/10/28 09:57:10;;;;;;;0.65;0.50;;;;;;;;;;5104701;28;20032;-85
2023/10/28 09:59:39;;;;;;;1.52;0.73;;;;;;;;;;5101916;28;20028;-88
2023/10/28 10:02:33;;;;;;;0.52;0.50;;;;;;;;;;5099401;28;20034;-85
2023/10/28 10:05:10;;;;;;;0.50;0.40;;;;;;;;;;5100570;28;20545;-88
2023/10/28 10:07:36;;;;;;;0.30;0.25;;;;;;;;;;5102820;28;20379;-86
2023/10/28 10:10:16;;;;;;;0.30;0.20;;;;;;;;;;5105947;28;20024;-86
2023/10/28 10:12:41;;;;;;;;;;;;;;;;;;5103263;28;20434;-85
2023/10/28 10:15:15;;;;;;;0.70;0.70;;;;;;;;;;5097917;28;19955;-83
2023/10/28 10:18:06;;;;;;;3.10;0.70;;;;;;;;;;5100696;28;20027;-82
2023/10/28 10:20:35;;;;;;;1.05;0.85;;;;;;;;;;5097066;27;20479;-83
2023/10/28 10:23:02;;;;;;;0.90;0.52;;;;;;;;;;5102447;28;20050;-83
2023/10/28 10:25:36;;;;;;;4.78;0.70;;;;;;;;;;5089453;28;20059;-81
2023/10/28 10:28:15;;;;;;;0.65;0.45;;;;;;;;;;5093297;28;20024;-83
2023/10/28 10:30:44;;;;;;;0.30;0.25;;;;;;;;;;5095409;28;20475;-82
2023/10/28 10:33:10;;;;;;;0.40;0.40;;;;;;;;;;5096987;28;20032;-81
2023/10/28 10:35:36;;;;;;;0.35;0.35;;;;;;;;;;5099670;28;20057;-82
2023/10/28 10:38:10;;;;;;;2.28;0.45;;;;;;;;;;5095165;28;20024;-79
2023/10/28 10:40:41;;;;;;;0.20;0.20;;;;;;;;;;5096037;28;20043;-84
2023/10/28 10:43:08;;;;;;;0.85;0.43;;;;;;;;;;5098338;28;20503;-81
2023/10/28 10:45:35;;;;;;;0.20;0.20;;;;;;;;;;5096359;28;20081;-81
2023/10/28 10:48:02;;;;;;;0.70;0.57;;;;;;;;;;5100297;28;20028;-81
2023/10/28 10:50:28;;;;;;;0.32;0.32;;;;;;;;;;5101286;28;20028;-82
2023/10/28 10:52:56;;;;;;;1.17;0.63;;;;;;;;;;5094942;28;20080;-81
2023/10/28 10:55:23;;;;;;;1.55;0.73;;;;;;;;;;5102278;28;20020;-83
2023/10/28 10:57:49;;;;;;;2.28;0.50;;;;;;;;;;5097537;28;20024;-83
2023/10/28 11:00:15;;;;;;;0.65;0.32;;;;;;;;;;5101968;28;20023;-81
2023/10/28 11:02:42;;;;;;;0.30;0.30;;;;;;;;;;5099105;28;20042;-80
2023/10/28 11:05:08;;;;;;;0.90;0.63;;;;;;;;;;5099760;28;20058;-83
2023/10/28 11:07:35;;;;;;;1.73;0.50;;;;;;;;;;5095830;28;20399;-81
2023/10/28 11:10:04;;;;;;;0.98;0.40;;;;;;;;;;5094633;28;20039;-82
2023/10/28 11:12:30;;;;;;;1.00;0.55;;;;;;;;;;5091090;28;20103;-82
2023/10/28 11:14:56;;;;;;;0.20;0.20;;;;;;;;;;5097407;28;20173;-83
2023/10/28 11:17:23;;;;;;;2.30;0.38;;;;;;;;;;5098873;28;20119;-82
2023/10/28 11:19:50;;;;;;;0.40;0.40;;;;;;;;;;5100249;28;20024;-81
2023/10/28 11:22:18;;;;;;;0.47;0.35;;;;;;;;;;5095403;28;20024;-81
2023/10/28 11:24:45;;;;;;;4.55;0.40;;;;;;;;;;5096508;28;20036;-83
2023/10/28 11:27:20;;;;;;;2.20;0.38;;;;;;;;;;5103321;28;20034;-80
2023/10/28 11:29:46;;;;;;;0.30;0.30;;;;;;;;;;5103514;28;20490;-84
2023/10/28 11:32:12;;;;;;;0.77;0.40;;;;;;;;;;5097854;28;20476;-85
2023/10/28 11:34:41;;;;;;;0.20;0.20;;;;;;;;;;5104443;28;20036;-82
2023/10/28 11:37:08;;;;;;;0.82;0.40;;;;;;;;;;5100503;28;20023;-85
2023/10/28 11:39:35;;;;;;;0.38;0.35;;;;;;;;;;5119861;27;20053;-86
2023/10/28 11:42:12;;;;;;;1.27;0.55;;;;;;;;;;5094676;28;20034;-84
2023/10/28 11:44:39;;;;;;;2.08;0.28;;;;;;;;;;5097241;28;20472;-84
2023/10/28 11:47:05;;;;;;;1.17;0.40;;;;;;;;;;5102010;28;20062;-82
2023/10/28 11:49:31;;;;;;;0.57;0.40;;;;;;;;;;5096550;28;20028;-86
2023/10/28 11:51:56;;;;;;;3.42;1.45;;;;;;;;;;5092436;28;20040;-83
2023/10/28 11:54:22;;;;;;;0.68;0.20;;;;;;;;;;5096493;28;20058;-83
2023/10/28 11:56:47;;;;;;;1.15;0.85;;;;;;;;;;5100163;28;20035;-83
2023/10/28 11:59:13;;;;;;;1.17;0.60;;;;;;;;;;5099825;28;20023;-85
2023/10/28 12:01:39;;;;;;;0.63;0.50;;;;;;;;;;5102516;28;20111;-83
2023/10/28 12:04:07;;;;;;;0.30;0.30;;;;;;;;;;5101738;28;20028;-79
2023/10/28 12:06:33;;;;;;;0.30;0.30;;;;;;;;;;5096236;28;20055;-83
2023/10/28 12:08:59;;;;;;;0.50;0.35;;;;;;;;;;5097965;28;20367;-80
2023/10/28 12:11:27;;;;;;;0.63;0.52;;;;;;;;;;5101095;28;20081;-83
2023/10/28 12:13:53;;;;;;;3.22;0.88;;;;;;;;;;5096224;28;20098;-84
2023/10/28 12:16:18;;;;;;;4.38;0.57;;;;;;;;;;5098746;28;20487;-83
2023/10/28 12:18:44;;;;;;;0.40;0.40;;;;;;;;;;5095947;28;20391;-85
2023/10/28 12:21:09;;;;;;;5.15;0.93;;;;;;;;;;5103004;28;20027;-81
2023/10/28 12:23:35;;;;;;;0.63;0.35;;;;;;;;;;5092694;28;20019;-83
2023/10/28 12:26:01;;;;;;;5.45;1.00;;;;;;;;;;5098370;28;20032;-84
2023/10/28 12:28:27;;;;;;;1.98;0.35;;;;;;;;;;5098261;28;20093;-84
2023/10/28 12:30:53;;;;;;;2.15;0.57;;;;;;;;;;5101008;28;20459;-83
2023/10/28 12:33:18;;;;;;;0.68;0.40;;;;;;;;;;5099879;28;20122;-80
2023/10/28 12:35:44;;;;;;;0.30;0.30;;;;;;;;;;5095449;28;20039;-82
2023/10/28 12:38:11;;;;;;;4.65;0.93;;;;;;;;;;5099320;28;20137;-83
2023/10/28 12:40:37;;;;;;;0.30;0.22;;;;;;;;;;5094544;28;20032;-83
2023/10/28 12:43:02;;;;;;;0.65;0.32;;;;;;;;;;5098945;28;20035;-85
2023/10/28 12:45:27;;;;;;;0.90;0.40;;;;;;;;;;5098784;28;20032;-82
2023/10/28 12:47:53;;;;;;;0.38;0.35;;;;;;;;;;5104918;28;20019;-84
2023/10/28 12:50:19;;;;;;;0.35;0.25;;;;;;;;;;5096558;28;20451;-85
2023/10/28 12:52:44;;;;;;;1.65;0.40;;;;;;;;;;5091349;28;20958;-84
2023/10/28 12:55:10;;;;;;;0.10;0.10;;;;;;;;;;5099822;28;20077;-82
2023/10/28 12:57:35;;;;;;;0.50;0.32;;;;;;;;;;5103536;28;20037;-85
2023/10/28 13:00:01;;;;;;;0.57;0.32;;;;;;;;;;5099778;28;20032;-84
2023/10/28 13:02:26;;;;;;;2.08;0.40;;;;;;;;;;5103334;28;20068;-85
2023/10/28 13:04:51;;;;;;;2.03;0.68;;;;;;;;;;5100647;28;20067;-84
2023/10/28 13:07:17;;;;;;;0.40;0.38;;;;;;;;;;5098683;28;20050;-82
2023/10/28 13:09:42;;;;;;;1.83;0.55;;;;;;;;;;5101707;28;20077;-81
2023/10/28 13:12:10;;;;;;;3.95;0.45;;;;;;;;;;5102723;28;20011;-84
2023/10/28 13:14:36;;;;;;;1.05;0.30;;;;;;;;;;5105420;28;20085;-85
2023/10/28 13:17:02;;;;;;;0.65;0.50;;;;;;;;;;5102742;28;20390;-85
2023/10/28 13:19:29;;;;;;;0.20;0.20;;;;;;;;;;5099588;28;20114;-85
2023/10/28 13:21:54;;;;;;;2.03;0.45;;;;;;;;;;5105217;28;20106;-81
2023/10/28 13:24:20;;;;;;;0.80;0.50;;;;;;;;;;5100339;28;20221;-84
2023/10/28 13:26:48;;;;;;;0.45;0.35;;;;;;;;;;5103124;28;20034;-85
2023/10/28 13:29:14;;;;;;;5.25;1.10;;;;;;;;;;5106350;28;20110;-84
2023/10/28 13:31:39;;;;;;;0.55;0.38;;;;;;;;;;5106321;28;20542;-83
2023/10/28 13:34:05;;;;;;;1.40;0.28;;;;;;;;;;5101819;28;20047;-83
2023/10/28 13:36:31;;;;;;;2.33;0.70;;;;;;;;;;5100820;28;20020;-86
2023/10/28 13:38:57;;;;;;;2.75;0.52;;;;;;;;;;5106131;28;20100;-83
2023/10/28 13:41:24;;;;;;;2.85;0.85;;;;;;;;;;5099332;28;20472;-84
2023/10/28 13:43:49;;;;;;;3.95;0.80;;;;;;;;;;5098571;28;20024;-84
2023/10/28 13:46:16;;;;;;;0.65;0.50;;;;;;;;;;5099436;28;20035;-84
2023/10/28 13:48:41;;;;;;;0.63;0.43;;;;;;;;;;5100812;28;20089;-85
2023/10/28 13:51:06;;;;;;;7.68;1.05;;;;;;;;;;5097123;28;20464;-82
2023/10/28 13:53:32;;;;;;;0.70;0.30;;;;;;;;;;5098415;28;20055;-84
2023/10/28 13:55:58;;;;;;;2.08;0.28;;;;;;;;;;5103882;28;20352;-84
2023/10/28 13:58:24;;;;;;;0.55;0.40;;;;;;;;;;5099967;28;20521;-85
2023/10/28 14:00:50;;;;;;;1.38;0.40;;;;;;;;;;5108265;28;20027;-79
2023/10/28 14:03:17;;;;;;;0.13;0.13;;;;;;;;;;5098633;28;20016;-83
2023/10/28 14:05:43;;;;;;;0.88;0.70;;;;;;;;;;5105381;27;20047;-82
2023/10/28 14:08:09;;;;;;;1.35;0.35;;;;;;;;;;5105793;28;20460;-83
2023/10/28 14:10:35;;;;;;;3.22;0.47;;;;;;;;;;5099118;28;20057;-82
2023/10/28 14:13:00;;;;;;;2.50;0.93;;;;;;;;;;5101492;28;20755;-83
2023/10/28 14:15:26;;;;;;;0.85;0.50;;;;;;;;;;5100241;28;20116;-86
2023/10/28 14:17:51;;;;;;;0.30;0.30;;;;;;;;;;5103875;28;20024;-86
2023/10/28 14:20:18;;;;;;;0.38;0.38;;;;;;;;;;5105307;28;20030;-83
2023/10/28 14:22:43;;;;;;;5.00;0.57;;;;;;;;;;5096840;28;20031;-86
2023/10/28 14:25:10;;;;;;;4.18;0.45;;;;;;;;;;5095668;28;20032;-85
2023/10/28 14:27:37;;;;;;;0.57;0.40;;;;;;;;;;5097435;28;20024;-84
2023/10/28 14:30:05;;;;;;;1.35;0.65;;;;;;;;;;5103923;28;20094;-85
2023/10/28 14:32:31;;;;;;;1.08;0.45;;;;;;;;;;5106964;28;20036;-84
2023/10/28 14:34:58;;;;;;;1.27;0.45;;;;;;;;;;5097826;28;20043;-85
2023/10/28 14:37:23;;;;;;;4.00;0.52;;;;;;;;;;5105898;28;20503;-86
2023/10/28 14:39:49;;;;;;;2.35;1.08;;;;;;;;;;5101446;28;20042;-86
2023/10/28 14:42:14;;;;;;;0.32;0.15;;;;;;;;;;5101242;28;20032;-85
2023/10/28 14:44:43;;;;;;;3.40;1.40;;;;;;;;;;5097930;28;20032;-85
2023/10/28 14:47:08;;;;;;;1.60;0.50;;;;;;;;;;5103678;28;20028;-85
2023/10/28 14:49:34;;;;;;;4.95;1.27;;;;;;;;;;5104267;28;20036;-85
2023/10/28 14:52:00;;;;;;;2.83;0.57;;;;;;;;;;5099304;28;20024;-83
2023/10/28 14:54:27;;;;;;;2.55;0.40;;;;;;;;;;5102379;28;20028;-82
2023/10/28 14:56:54;;;;;;;0.50;0.40;;;;;;;;;;5099159;28;20112;-84
2023/10/28 14:59:20;;;;;;;0.13;0.13;;;;;;;;;;5096396;28;20024;-84
2023/10/28 15:01:45;;;;;;;6.18;2.85;;;;;;;;;;5103755;28;20031;-86
2023/10/28 15:04:12;;;;;;;0.93;0.85;;;;;;;;;;5102247;28;20408;-83
2023/10/28 15:06:38;;;;;;;2.95;1.83;;;;;;;;;;5099495;28;20032;-84
2023/10/28 15:09:03;;;;;;;4.63;3.03;;;;;;;;;;5094293;28;20357;-85
2023/10/28 15:11:29;;;;;;;5.22;2.30;;;;;;;;;;5102696;28;20482;-83
2023/10/28 15:13:54;;;;;;;1.65;0.80;;;;;;;;;;5098137;28;20038;-84
2023/10/28 15:16:20;;;;;;;4.05;1.55;;;;;;;;;;5105042;28;20046;-85
2023/10/28 15:18:46;;;;;;;3.92;1.25;;;;;;;;;;5098377;28;20471;-85
2023/10/28 15:21:14;;;;;;;17.63;6.68;;;;;;;;;;5094818;28;20046;-83
2023/10/28 15:23:41;;;;;;;7.78;3.20;;;;;;;;;;5093348;28;20039;-87
2023/10/28 15:26:17;;;;;;;7.05;4.22;;;;;;;;;;5093910;28;20040;-83
2023/10/28 15:28:43;;;;;;;0.98;0.82;;;;;;;;;;5095955;28;20027;-82
2023/10/28 15:31:18;;;;;;;1.60;1.38;;;;;;;;;;5090986;28;21378;-84
2023/10/28 15:33:44;;;;;;;1.65;0.77;;;;;;;;;;5097195;28;20380;-84
2023/10/28 15:36:13;;;;;;;1.85;1.17;;;;;;;;;;5097020;28;20019;-85
2023/10/28 15:38:40;;;;;;;5.55;1.98;;;;;;;;;;5102562;28;20840;-85
2023/10/28 15:41:06;;;;;;;2.05;1.27;;;;;;;;;;5093401;28;20495;-86
2023/10/28 15:43:38;;;;;;;5.28;2.78;;;;;;;;;;5094090;28;20372;-87
2023/10/28 15:46:15;;;;;;;8.23;3.75;;;;;;;;;;5095316;28;20388;-83
2023/10/28 15:48:42;;;;;;;1.40;0.82;;;;;;;;;;5096414;28;20375;-85
2023/10/28 15:51:11;;;;;;;7.70;3.45;;;;;;;;;;5099241;28;20032;-84
2023/10/28 15:53:38;;;;;;;3.80;2.25;;;;;;;;;;5101636;28;20024;-85
2023/10/28 15:56:10;;;;;;;1.80;1.02;;;;;;;;;;5089733;28;20032;-85
2023/10/28 15:58:36;;;;;;;2.33;1.10;;;;;;;;;;5095248;28;20036;-84
2023/10/28 16:01:02;;;;;;;2.00;0.82;;;;;;;;;;5100184;28;20024;-86
2023/10/28 16:03:29;;;;;;;1.00;0.57;;;;;;;;;;5095164;28;20011;-85
2023/10/28 16:05:55;;;;;;;2.33;1.10;;;;;;;;;;5096203;28;20019;-84
2023/10/28 16:08:21;;;;;;;1.52;1.00;;;;;;;;;;5099993;28;20035;-86
2023/10/28 16:10:46;;;;;;;2.03;0.30;;;;;;;;;;5100515;28;20020;-85
